Lake City, Georgia
Current Conditions -  °F | °C
As of 12:52 AM on Sunday 23 Nov 2014 (Local Time) from KATL Reporting Station
Overcast Overcast  
Wind Chill: 53°   Ceiling: 1700
Heat Index: 53°   Visibility: 10mi
Dew Point: 31°   Wind: 13mph
Humidity: 43%   Direction: 100°E
Pressure: 30.18"   Gusts: NA
Location:  33.5846°N, 84.3286°W
Report Text: KATL 230552Z 10011KT 10SM BKN017 OVC050 12/M01 A3018 RMK AO2 SLP219 T01171006 10139 20117 58018 $
Loading
Personal Weather Stations






























Interactive Weather Map New forecast layout! Learn more

10-Day Weather Forecast

Advertisements
Track Severe Weather on mobile